aviador You're here:

KROG Decoded Metar

ROGERS in AR, USA
Report Time2018-07-23 14:58:00
UTC Time2018-07-23 15:50:05
Flight Rules vfr VFR
Wind060° at 10 kt
W.Decomp.*RWY 02: 8.1 kt HW 5.9 kt RCW
W.Rank060° ranks 30
Current wind is above 060° avg. (6.6)
Visibility9999 m
Phenomena:N/A
Clouds:N/A
Expected CloudBase > 2,800 ft AGL from Temp-Dew spread
CeilingNone
Temp24°C (ISA +12)
Dew Point17°C (65% RH)
AAT22.8°C
QNH1017 hPa
Density Alt2,844 ft
Elevation1,362 ft
Report Wrong Elevation
Raw Report
KROG 231458Z 06010KT 10SM CLR 24/17 A3004 RMK AO2 SLP158 T02440172
51006=

Extra information for KROG:More info

Metar Taf Metar & Taf Last 4 Metars F.Rules Stats Wind Profile Meteogram Temp Stats Airport Information Weather charts Add Link Nearby VenuesMetar ALERT Operation Metar Decoded Social comments

AIRNAV info for KROG